Terminal Aerodrome Forecast
Issued by NWS

Home | Current Version | Previous Version | Text Only | Print | Product List | Glossary On
Versions: 1 2 3 4 5 6 7 8 9 10 11 12 13 14 15 16 17 18 19 20 21 22 23 24 25 26
000
FTUS43 KSGF 181456 AAB
TAFBBG
TAF AMD
KBBG 181456Z 1815/1912 00000KT 1/4SM FG OVC002
     FM181700 VRB03KT 1SM BR OVC004
     FM181900 12004KT 4SM BR OVC008
     FM182000 12004KT P6SM OVC012
     FM190600 12004KT 1 1/2SM BR VCSH OVC003=

USA.gov is the U.S. government's official web portal to all federal, state and local government web resources and services.